Time;durP1;ratioP1;P1;durP2;ratioP2;P2;SDS_P1;SDS_P2;PMS_P1;PMS_P2;Temp;Humidity;BMP_temperature;BMP_pressure;BME280_temperature;BME280_humidity;BME280_pressure;Samples;Min_cycle;Max_cycle;Signal;HPM_P1;HPM_P2
2024/01/31 00:01:05;;;;;;;4.00;3.60;;;8.50;38.00;;;;;;5060731;28;20229;-64
2024/01/31 00:03:32;;;;;;;4.47;3.50;;;8.50;38.00;;;;;;5064585;28;20530;-64
2024/01/31 00:05:58;;;;;;;4.53;3.33;;;8.50;38.10;;;;;;5066469;28;20213;-64
2024/01/31 00:08:25;;;;;;;5.63;3.77;;;8.60;38.20;;;;;;5064082;28;20212;-64
2024/01/31 00:10:51;;;;;;;4.77;3.67;;;8.70;37.80;;;;;;5067518;28;20250;-64
2024/01/31 00:13:18;;;;;;;4.63;3.77;;;8.80;37.20;;;;;;5066535;28;20213;-64
2024/01/31 00:15:45;;;;;;;4.27;3.87;;;8.60;37.20;;;;;;5061246;28;20261;-64
2024/01/31 00:18:11;;;;;;;3.80;3.40;;;8.60;37.50;;;;;;5060162;28;20208;-64
2024/01/31 00:20:38;;;;;;;5.00;3.70;;;8.50;37.80;;;;;;5060867;28;20238;-64
2024/01/31 00:23:06;;;;;;;4.77;3.57;;;8.50;37.80;;;;;;5064128;28;20229;-64
2024/01/31 00:25:32;;;;;;;4.40;4.00;;;8.50;37.70;;;;;;5063479;28;20582;-64
2024/01/31 00:27:58;;;;;;;4.07;3.67;;;8.50;37.60;;;;;;5065035;28;20201;-64
2024/01/31 00:30:25;;;;;;;3.97;3.67;;;8.50;37.80;;;;;;5067144;28;20232;-65
2024/01/31 00:32:51;;;;;;;5.53;3.97;;;8.50;37.90;;;;;;5063704;28;20256;-65
2024/01/31 00:35:18;;;;;;;3.90;3.60;;;8.50;38.00;;;;;;5062522;28;20705;-64
2024/01/31 00:37:45;;;;;;;4.00;3.60;;;8.50;37.90;;;;;;5066020;28;20205;-64
2024/01/31 00:40:11;;;;;;;6.07;3.97;;;8.50;37.90;;;;;;5039911;28;20197;-64
2024/01/31 00:42:38;;;;;;;4.10;3.70;;;8.50;38.00;;;;;;5066904;28;20305;-64
2024/01/31 00:45:04;;;;;;;4.53;3.70;;;8.60;38.10;;;;;;5062667;28;20730;-64
2024/01/31 00:47:31;;;;;;;4.30;3.90;;;8.50;38.40;;;;;;5056096;28;20237;-64
2024/01/31 00:49:57;;;;;;;4.70;3.70;;;8.30;38.70;;;;;;5072721;28;20209;-64
2024/01/31 00:52:24;;;;;;;4.57;3.87;;;8.30;39.40;;;;;;5073843;28;20711;-65
2024/01/31 00:54:50;;;;;;;3.77;3.30;;;8.30;39.40;;;;;;5073477;28;20193;-65
2024/01/31 00:57:17;;;;;;;4.13;3.60;;;8.30;39.40;;;;;;5078987;28;20196;-64
2024/01/31 00:59:43;;;;;;;4.30;3.57;;;8.20;39.40;;;;;;5075340;28;20245;-64
2024/01/31 01:02:10;;;;;;;4.13;3.77;;;8.20;39.40;;;;;;5074139;28;20221;-64
2024/01/31 01:04:36;;;;;;;6.43;3.43;;;8.20;39.40;;;;;;5057282;28;20300;-64
2024/01/31 01:07:03;;;;;;;4.00;3.60;;;8.20;39.40;;;;;;5064756;28;20249;-64
2024/01/31 01:09:30;;;;;;;3.73;3.43;;;8.10;40.20;;;;;;5060065;28;20210;-65
2024/01/31 01:11:56;;;;;;;4.27;3.87;;;8.20;40.10;;;;;;5073793;28;20257;-64
2024/01/31 01:14:23;;;;;;;4.20;3.80;;;8.00;40.00;;;;;;5074775;28;20611;-64
2024/01/31 01:16:49;;;;;;;6.40;4.50;;;8.00;39.80;;;;;;5070205;28;20205;-64
2024/01/31 01:19:16;;;;;;;5.47;4.57;;;8.00;40.20;;;;;;5070831;28;20217;-65
2024/01/31 01:21:42;;;;;;;4.03;3.63;;;8.00;40.80;;;;;;5070725;28;20706;-65
2024/01/31 01:24:09;;;;;;;3.90;3.60;;;7.90;40.90;;;;;;5066899;28;20266;-64
2024/01/31 01:26:36;;;;;;;5.23;3.90;;;7.80;40.60;;;;;;5066964;28;20249;-65
2024/01/31 01:29:02;;;;;;;4.93;4.00;;;7.80;41.00;;;;;;5051915;28;20201;-65
2024/01/31 01:31:29;;;;;;;5.03;3.70;;;7.80;41.00;;;;;;5073630;28;20238;-65
2024/01/31 01:33:56;;;;;;;4.87;3.70;;;7.70;40.70;;;;;;5070617;28;20213;-65
2024/01/31 01:36:22;;;;;;;3.60;3.23;;;7.80;40.70;;;;;;5076930;28;20216;-65
2024/01/31 01:38:49;;;;;;;4.23;3.87;;;7.80;41.10;;;;;;5079582;28;20228;-64
2024/01/31 01:41:15;;;;;;;4.33;3.93;;;7.70;41.40;;;;;;5074415;28;20265;-65
2024/01/31 01:43:42;;;;;;;4.83;3.67;;;7.70;41.10;;;;;;5064479;28;20201;-64
2024/01/31 01:46:09;;;;;;;5.17;3.83;;;7.70;41.50;;;;;;5034808;28;20660;-65
2024/01/31 01:48:35;;;;;;;4.53;4.13;;;7.70;41.50;;;;;;5064606;28;20206;-65
2024/01/31 01:51:02;;;;;;;4.07;3.50;;;7.70;41.00;;;;;;5061213;28;20233;-65
2024/01/31 01:53:28;;;;;;;4.07;3.53;;;7.50;40.90;;;;;;5062959;28;20209;-64
2024/01/31 01:55:55;;;;;;;4.20;3.77;;;7.70;41.70;;;;;;5065191;28;20205;-65
2024/01/31 01:58:21;;;;;;;4.30;3.90;;;7.70;41.40;;;;;;5066297;28;20200;-65
2024/01/31 02:00:48;;;;;;;4.37;3.97;;;7.90;40.50;;;;;;5057201;28;20300;-65
2024/01/31 02:03:14;;;;;;;4.73;4.23;;;7.60;41.10;;;;;;5065232;28;20212;-64
2024/01/31 02:05:41;;;;;;;4.40;3.87;;;7.40;41.40;;;;;;5060681;28;20309;-64
2024/01/31 02:08:07;;;;;;;4.33;3.93;;;7.60;41.60;;;;;;5054259;28;20216;-64
2024/01/31 02:10:34;;;;;;;5.30;4.07;;;7.60;41.20;;;;;;5058283;28;20219;-65
2024/01/31 02:13:01;;;;;;;7.03;4.37;;;7.70;41.00;;;;;;5053720;28;20618;-65
2024/01/31 02:15:27;;;;;;;5.00;4.07;;;7.60;41.30;;;;;;5058513;28;20300;-64
2024/01/31 02:17:54;;;;;;;4.33;3.93;;;7.50;41.60;;;;;;5055167;28;20224;-64
2024/01/31 02:20:22;;;;;;;3.90;3.50;;;7.40;42.20;;;;;;5057599;28;20232;-64
2024/01/31 02:22:48;;;;;;;4.53;4.13;;;7.40;42.20;;;;;;5059767;28;20260;-64
2024/01/31 02:25:15;;;;;;;4.57;4.03;;;7.40;41.60;;;;;;5049993;28;20695;-64
2024/01/31 02:27:42;;;;;;;5.67;4.00;;;7.30;42.00;;;;;;5057150;28;20300;-64
2024/01/31 02:30:08;;;;;;;6.00;4.20;;;7.20;42.40;;;;;;5051241;28;20310;-64
2024/01/31 02:32:35;;;;;;;5.43;3.70;;;7.20;42.60;;;;;;5054718;28;20230;-64
2024/01/31 02:35:01;;;;;;;4.30;4.00;;;7.20;42.90;;;;;;5051685;28;20286;-64
2024/01/31 02:37:28;;;;;;;4.67;3.70;;;7.10;42.40;;;;;;5061184;28;20216;-64
2024/01/31 02:39:54;;;;;;;4.13;3.60;;;7.00;42.50;;;;;;5053078;28;20274;-64
2024/01/31 02:42:21;;;;;;;4.30;3.90;;;7.10;42.40;;;;;;5056941;28;20775;-63
2024/01/31 02:44:47;;;;;;;4.00;3.60;;;7.10;42.30;;;;;;5042983;28;20609;-64
2024/01/31 02:47:14;;;;;;;4.10;3.70;;;7.10;42.80;;;;;;5053487;28;20205;-64
2024/01/31 02:49:40;;;;;;;4.23;3.87;;;7.10;42.30;;;;;;5056016;28;20784;-63
2024/01/31 02:52:07;;;;;;;5.03;4.00;;;7.10;42.60;;;;;;5058587;28;20220;-64
2024/01/31 02:54:34;;;;;;;4.70;4.30;;;7.20;43.10;;;;;;5063583;28;20240;-64
2024/01/31 02:57:00;;;;;;;4.23;3.77;;;7.10;42.80;;;;;;5053873;28;20725;-64
2024/01/31 02:59:27;;;;;;;4.70;4.00;;;7.20;43.10;;;;;;5055210;28;20286;-64
2024/01/31 03:01:53;;;;;;;3.90;3.60;;;7.20;42.90;;;;;;5041504;28;20303;-64
2024/01/31 03:04:20;;;;;;;4.07;3.63;;;7.10;42.90;;;;;;5050727;28;20215;-63
2024/01/31 03:06:46;;;;;;;4.07;3.67;;;7.00;43.00;;;;;;5054326;28;20611;-63
2024/01/31 03:09:13;;;;;;;4.70;4.17;;;7.00;43.00;;;;;;5053729;28;20213;-63
2024/01/31 03:11:39;;;;;;;4.47;3.70;;;6.90;42.90;;;;;;5054719;28;20286;-64
2024/01/31 03:14:06;;;;;;;5.30;3.70;;;7.00;43.50;;;;;;5058885;28;20269;-64
2024/01/31 03:16:32;;;;;;;7.40;4.63;;;7.10;43.50;;;;;;5054601;28;20200;-64
2024/01/31 03:18:59;;;;;;;4.87;4.37;;;7.00;43.90;;;;;;5050017;28;22397;-64
2024/01/31 03:21:25;;;;;;;5.63;4.13;;;7.00;43.80;;;;;;5057442;28;20318;-64
2024/01/31 03:23:52;;;;;;;5.13;3.77;;;7.10;43.90;;;;;;5054209;28;20285;-64
2024/01/31 03:26:18;;;;;;;4.57;3.90;;;7.20;43.40;;;;;;5056090;28;20261;-63
2024/01/31 03:28:45;;;;;;;4.77;4.27;;;7.20;43.20;;;;;;5057144;28;20248;-64
2024/01/31 03:31:11;;;;;;;5.17;4.03;;;7.10;43.10;;;;;;5055157;28;20737;-64
2024/01/31 03:33:38;;;;;;;4.40;4.00;;;7.10;43.60;;;;;;5053782;28;20723;-64
2024/01/31 03:36:04;;;;;;;4.47;4.07;;;7.10;43.30;;;;;;5051903;28;20228;-64
2024/01/31 03:38:31;;;;;;;6.20;4.20;;;7.10;43.70;;;;;;5059087;28;20239;-64
2024/01/31 03:40:57;;;;;;;4.67;3.80;;;7.30;42.80;;;;;;5055963;28;20236;-63
2024/01/31 03:43:24;;;;;;;4.27;3.70;;;7.30;42.80;;;;;;5055603;28;20286;-64
2024/01/31 03:45:50;;;;;;;5.00;4.00;;;7.20;43.70;;;;;;5059690;28;20247;-64
2024/01/31 03:48:17;;;;;;;5.10;4.07;;;7.20;43.10;;;;;;5054206;28;20682;-63
2024/01/31 03:50:43;;;;;;;4.40;3.60;;;7.20;43.10;;;;;;5049833;28;20213;-64
2024/01/31 03:53:10;;;;;;;4.53;4.07;;;7.10;43.10;;;;;;5057073;28;20299;-64
2024/01/31 03:55:37;;;;;;;4.07;3.73;;;7.10;42.80;;;;;;5052042;28;20216;-64
2024/01/31 03:58:03;;;;;;;4.60;4.20;;;7.20;43.60;;;;;;5052335;28;20244;-64
2024/01/31 04:00:30;;;;;;;4.67;4.17;;;7.20;43.20;;;;;;5056743;28;20600;-63
2024/01/31 04:02:56;;;;;;;4.33;3.73;;;7.20;43.30;;;;;;5053853;28;20698;-64
2024/01/31 04:05:23;;;;;;;5.80;4.37;;;7.10;43.80;;;;;;5050561;28;20226;-63
2024/01/31 04:07:49;;;;;;;4.23;3.80;;;7.10;44.20;;;;;;5056204;28;20228;-63
2024/01/31 04:10:16;;;;;;;5.00;4.10;;;7.10;43.10;;;;;;5051826;28;20215;-64
2024/01/31 04:12:43;;;;;;;4.47;3.80;;;7.00;44.10;;;;;;5056433;28;20575;-63
2024/01/31 04:15:09;;;;;;;6.57;4.23;;;7.00;44.10;;;;;;5051777;28;20648;-63
2024/01/31 04:17:36;;;;;;;4.70;4.17;;;7.00;43.60;;;;;;5058436;28;20224;-64
2024/01/31 04:20:03;;;;;;;4.40;3.60;;;7.00;43.90;;;;;;5055988;28;20208;-64
2024/01/31 04:22:29;;;;;;;4.90;4.20;;;7.00;43.50;;;;;;5056177;28;20326;-63
2024/01/31 04:24:56;;;;;;;4.97;4.07;;;6.90;43.70;;;;;;5059809;28;20287;-63
2024/01/31 04:27:22;;;;;;;4.47;3.80;;;6.90;43.90;;;;;;5059789;28;20240;-64
2024/01/31 04:29:49;;;;;;;4.63;3.80;;;6.90;44.00;;;;;;5060234;28;20215;-64
2024/01/31 04:32:15;;;;;;;3.83;3.53;;;6.90;44.20;;;;;;5054796;28;20224;-63
2024/01/31 04:34:42;;;;;;;5.07;3.73;;;6.80;44.50;;;;;;5052778;28;20229;-63
2024/01/31 04:37:08;;;;;;;4.83;3.60;;;6.80;44.00;;;;;;5060232;28;20690;-63
2024/01/31 04:39:35;;;;;;;4.27;3.83;;;6.80;43.80;;;;;;5056656;28;20688;-64
2024/01/31 04:42:01;;;;;;;5.87;4.67;;;6.90;43.40;;;;;;5055773;28;20267;-63
2024/01/31 04:44:28;;;;;;;5.40;4.00;;;7.00;44.20;;;;;;5064286;28;20263;-64
2024/01/31 04:46:54;;;;;;;7.80;4.20;;;6.90;43.60;;;;;;5056843;28;20319;-64
2024/01/31 04:49:21;;;;;;;5.37;4.10;;;7.00;44.20;;;;;;5055777;28;20643;-64
2024/01/31 04:51:47;;;;;;;4.20;3.80;;;7.10;43.90;;;;;;5065345;28;20247;-64
2024/01/31 04:54:14;;;;;;;5.73;4.43;;;7.10;43.80;;;;;;5055598;28;20627;-64
2024/01/31 04:56:40;;;;;;;4.57;3.83;;;7.00;43.90;;;;;;5058579;28;20291;-63
2024/01/31 04:59:07;;;;;;;5.83;4.50;;;7.20;43.10;;;;;;5065267;28;20761;-63
2024/01/31 05:01:34;;;;;;;4.40;3.63;;;7.40;42.90;;;;;;5054251;28;20253;-63
2024/01/31 05:04:00;;;;;;;4.63;3.73;;;7.40;43.30;;;;;;5060624;28;20212;-63
2024/01/31 05:06:27;;;;;;;4.67;3.83;;;7.50;42.80;;;;;;5054823;28;20236;-63
2024/01/31 05:08:54;;;;;;;6.37;4.33;;;7.40;43.30;;;;;;5061888;28;20662;-63
2024/01/31 05:11:20;;;;;;;6.33;3.67;;;7.30;43.80;;;;;;5052466;28;20229;-63
2024/01/31 05:13:47;;;;;;;5.53;3.80;;;7.40;43.90;;;;;;5053912;28;20628;-63
2024/01/31 05:16:13;;;;;;;5.30;3.93;;;7.40;43.50;;;;;;5064190;28;20224;-63
2024/01/31 05:18:40;;;;;;;5.53;3.93;;;7.60;42.80;;;;;;5055480;28;20216;-62
2024/01/31 05:21:08;;;;;;;6.47;4.33;;;7.70;42.50;;;;;;5058885;28;20660;-63
2024/01/31 05:23:34;;;;;;;6.60;4.07;;;7.80;41.90;;;;;;5065030;28;20215;-63
2024/01/31 05:26:01;;;;;;;5.20;4.03;;;7.80;41.90;;;;;;5039454;28;20633;-63
2024/01/31 05:28:27;;;;;;;6.67;4.63;;;7.70;42.30;;;;;;5061808;28;20208;-65
2024/01/31 05:30:54;;;;;;;5.30;4.53;;;7.70;42.30;;;;;;5060992;28;20234;-64
2024/01/31 05:33:20;;;;;;;5.37;4.30;;;7.80;42.90;;;;;;5061648;28;20239;-63
2024/01/31 05:35:47;;;;;;;8.50;4.33;;;7.70;43.20;;;;;;5065290;28;20225;-63
2024/01/31 05:38:14;;;;;;;6.07;4.73;;;7.70;42.80;;;;;;5062523;28;20201;-65
2024/01/31 05:40:42;;;;;;;9.70;4.70;;;7.70;42.50;;;;;;5062114;28;20246;-65
2024/01/31 05:43:09;;;;;;;8.33;4.53;;;7.70;42.80;;;;;;5063860;28;20606;-65
2024/01/31 05:45:35;;;;;;;6.03;4.53;;;7.60;43.10;;;;;;5059006;28;20247;-63
2024/01/31 05:48:02;;;;;;;5.43;4.40;;;7.60;43.10;;;;;;5064308;28;20633;-63
2024/01/31 05:50:29;;;;;;;6.23;4.33;;;7.60;43.50;;;;;;5059557;28;20212;-64
2024/01/31 05:52:56;;;;;;;6.20;4.23;;;7.60;43.50;;;;;;5063799;28;20225;-63
2024/01/31 05:55:22;;;;;;;6.10;4.80;;;7.70;43.60;;;;;;5057391;28;20591;-64
2024/01/31 05:57:49;;;;;;;5.97;4.87;;;7.60;43.50;;;;;;5060554;28;20213;-65
2024/01/31 06:00:16;;;;;;;8.03;4.67;;;7.50;43.90;;;;;;5063158;28;20216;-64
2024/01/31 06:02:42;;;;;;;8.90;4.97;;;7.50;43.90;;;;;;5047126;28;20307;-63
2024/01/31 06:05:09;;;;;;;9.90;4.97;;;7.40;44.20;;;;;;5061678;28;20216;-64
2024/01/31 06:07:35;;;;;;;7.70;4.83;;;7.30;44.20;;;;;;5064307;28;20207;-64
2024/01/31 06:10:03;;;;;;;11.90;5.77;;;7.20;44.10;;;;;;5063229;28;20826;-64
2024/01/31 06:12:29;;;;;;;6.53;4.90;;;7.20;44.70;;;;;;5060992;28;20579;-64
2024/01/31 06:14:56;;;;;;;8.97;5.87;;;7.20;45.20;;;;;;5062481;28;20675;-64
2024/01/31 06:17:22;;;;;;;9.77;5.90;;;7.20;44.80;;;;;;5060906;28;20207;-64
2024/01/31 06:19:49;;;;;;;9.00;5.60;;;7.20;44.70;;;;;;5061432;28;20285;-64
2024/01/31 06:22:15;;;;;;;9.17;6.00;;;7.30;45.00;;;;;;5057443;28;20224;-63
2024/01/31 06:24:42;;;;;;;7.80;5.40;;;7.40;44.90;;;;;;5067324;28;20220;-64
2024/01/31 06:27:09;;;;;;;11.67;5.57;;;7.50;44.70;;;;;;5062176;28;20305;-64
2024/01/31 06:29:35;;;;;;;9.53;5.80;;;7.60;44.50;;;;;;5061127;28;20204;-64
2024/01/31 06:32:02;;;;;;;7.03;4.70;;;7.50;44.40;;;;;;5064856;28;20309;-63
2024/01/31 06:34:28;;;;;;;9.20;5.63;;;7.50;44.80;;;;;;5059886;28;20269;-64
2024/01/31 06:36:55;;;;;;;6.33;5.10;;;7.50;44.80;;;;;;5058776;28;20725;-63
2024/01/31 06:39:21;;;;;;;6.63;5.60;;;7.50;44.30;;;;;;5063474;28;20250;-64
2024/01/31 06:41:48;;;;;;;10.50;5.40;;;7.60;43.90;;;;;;5062121;28;20239;-64
2024/01/31 06:44:14;;;;;;;9.13;5.23;;;7.60;44.20;;;;;;5061469;28;20211;-63
2024/01/31 06:46:46;;;;;;;9.60;6.50;;;7.60;44.20;;;;;;5059908;28;20650;-64
2024/01/31 06:49:12;;;;;;;8.50;5.57;;;7.60;44.40;;;;;;5053373;28;20263;-63
2024/01/31 06:51:39;;;;;;;6.43;5.27;;;7.60;44.30;;;;;;5066069;28;20281;-64
2024/01/31 06:54:05;;;;;;;7.90;6.10;;;7.50;44.20;;;;;;5058998;28;20228;-64
2024/01/31 06:56:32;;;;;;;6.37;5.13;;;7.40;44.40;;;;;;5059300;28;20286;-64
2024/01/31 06:58:58;;;;;;;9.97;6.07;;;7.40;45.00;;;;;;5065677;28;20212;-64
2024/01/31 07:01:25;;;;;;;9.00;5.57;;;7.50;45.30;;;;;;5061713;28;20236;-64
2024/01/31 07:03:52;;;;;;;7.07;4.70;;;7.50;44.40;;;;;;5048289;28;20215;-64
2024/01/31 07:06:18;;;;;;;8.93;5.70;;;7.50;45.20;;;;;;5059951;28;20224;-64
2024/01/31 07:08:45;;;;;;;9.50;5.57;;;7.50;44.90;;;;;;5064045;28;20749;-64
2024/01/31 07:11:11;;;;;;;8.67;5.67;;;7.60;44.60;;;;;;5062955;28;20224;-64
2024/01/31 07:13:38;;;;;;;10.07;5.57;;;7.60;44.40;;;;;;5061652;28;20247;-64
2024/01/31 07:16:05;;;;;;;10.33;5.80;;;7.50;44.50;;;;;;5059997;28;20208;-64
2024/01/31 07:18:32;;;;;;;9.10;5.40;;;7.50;44.90;;;;;;5060412;28;20258;-64
2024/01/31 07:20:58;;;;;;;7.50;5.17;;;7.60;44.40;;;;;;5058102;28;20223;-64
2024/01/31 07:23:25;;;;;;;9.63;5.43;;;7.60;44.20;;;;;;5060834;28;20243;-64
2024/01/31 07:25:51;;;;;;;9.10;5.67;;;7.70;43.60;;;;;;5063630;28;20240;-64
2024/01/31 07:28:19;;;;;;;5.90;5.30;;;7.60;43.90;;;;;;5058136;28;20207;-64
2024/01/31 07:30:46;;;;;;;8.63;5.40;;;7.70;43.90;;;;;;5056394;28;20208;-64
2024/01/31 07:33:12;;;;;;;7.97;5.37;;;7.60;43.50;;;;;;5062089;28;20636;-64
2024/01/31 07:35:39;;;;;;;8.47;5.80;;;7.70;43.60;;;;;;5062444;28;20216;-63
2024/01/31 07:38:05;;;;;;;9.20;5.00;;;7.60;44.00;;;;;;5064096;28;20211;-64
2024/01/31 07:40:32;;;;;;;10.63;5.73;;;7.60;44.30;;;;;;5059681;28;20932;-65
2024/01/31 07:42:58;;;;;;;7.50;5.17;;;7.60;44.40;;;;;;5062138;28;20313;-65
2024/01/31 07:45:27;;;;;;;7.27;5.70;;;7.60;44.20;;;;;;5062774;28;20700;-65
2024/01/31 07:47:53;;;;;;;7.03;5.53;;;7.60;44.20;;;;;;5063267;28;20231;-65
2024/01/31 07:50:20;;;;;;;9.37;5.20;;;7.70;44.20;;;;;;5054182;28;20211;-65
2024/01/31 07:52:46;;;;;;;10.00;5.47;;;7.70;43.80;;;;;;5053573;28;20225;-63
2024/01/31 07:55:13;;;;;;;11.97;5.63;;;7.70;43.70;;;;;;5061754;28;20211;-63
2024/01/31 07:57:40;;;;;;;8.17;5.43;;;7.70;43.90;;;;;;5051375;28;20208;-63
2024/01/31 08:00:07;;;;;;;7.50;5.23;;;7.60;44.30;;;;;;5062100;28;20208;-64
2024/01/31 08:02:33;;;;;;;11.87;5.90;;;7.70;44.00;;;;;;5068163;28;20281;-64
2024/01/31 08:05:00;;;;;;;7.13;5.60;;;7.70;44.10;;;;;;5066338;28;20235;-63
2024/01/31 08:07:27;;;;;;;8.87;5.20;;;7.70;44.20;;;;;;5067930;28;20286;-64
2024/01/31 08:09:53;;;;;;;10.10;5.83;;;7.70;43.80;;;;;;5067497;28;20216;-64
2024/01/31 08:12:20;;;;;;;9.27;5.20;;;7.70;43.90;;;;;;5070813;28;20232;-64
2024/01/31 08:14:46;;;;;;;6.87;5.30;;;7.80;44.20;;;;;;5067343;28;20281;-64
2024/01/31 08:17:13;;;;;;;8.47;5.23;;;7.90;43.80;;;;;;5050834;28;20202;-64
2024/01/31 08:19:39;;;;;;;7.23;5.40;;;7.90;44.00;;;;;;5070451;28;20254;-64
2024/01/31 08:22:06;;;;;;;10.00;5.17;;;7.90;43.70;;;;;;5072515;28;20278;-64
2024/01/31 08:24:32;;;;;;;9.93;6.07;;;8.00;43.90;;;;;;5046751;28;20279;-65
2024/01/31 08:26:59;;;;;;;10.83;5.13;;;8.00;43.80;;;;;;5053228;28;20416;-65
2024/01/31 08:29:25;;;;;;;8.87;5.23;;;8.00;43.80;;;;;;5061847;28;20210;-65
2024/01/31 08:31:52;;;;;;;8.23;5.43;;;8.00;43.80;;;;;;5064916;28;20295;-65
2024/01/31 08:34:18;;;;;;;8.43;5.60;;;8.10;42.90;;;;;;5060904;28;20201;-64
2024/01/31 08:36:45;;;;;;;7.27;5.03;;;8.20;42.90;;;;;;5055141;28;20597;-64
2024/01/31 08:39:12;;;;;;;7.17;5.53;;;8.40;43.10;;;;;;5058546;28;20208;-65
2024/01/31 08:41:38;;;;;;;9.10;5.23;;;8.50;42.30;;;;;;5063211;28;20785;-65
2024/01/31 08:44:05;;;;;;;7.57;5.30;;;8.60;42.00;;;;;;5061405;28;20296;-65
2024/01/31 08:46:31;;;;;;;7.77;5.20;;;8.90;41.40;;;;;;5055452;28;20225;-65
2024/01/31 08:48:58;;;;;;;8.30;5.17;;;9.10;41.20;;;;;;5055359;28;20252;-66
2024/01/31 08:51:25;;;;;;;8.57;5.40;;;9.30;40.60;;;;;;5055263;28;20283;-66
2024/01/31 08:53:52;;;;;;;5.43;4.73;;;9.40;40.40;;;;;;5055387;28;20216;-66
2024/01/31 08:56:18;;;;;;;5.93;4.57;;;9.70;39.40;;;;;;5058682;28;20691;-66
2024/01/31 08:58:45;;;;;;;6.87;5.10;;;9.80;38.30;;;;;;5052565;28;20700;-65
2024/01/31 09:01:12;;;;;;;6.93;5.00;;;9.90;39.70;;;;;;5054214;28;20228;-65
2024/01/31 09:03:38;;;;;;;7.57;5.13;;;10.10;37.70;;;;;;5054424;28;20211;-65
2024/01/31 09:06:05;;;;;;;9.10;5.30;;;10.50;37.60;;;;;;5051516;28;20216;-66
2024/01/31 09:08:32;;;;;;;7.63;5.87;;;10.80;36.00;;;;;;5052522;28;20298;-66
2024/01/31 09:10:58;;;;;;;7.03;4.83;;;10.90;35.70;;;;;;5054057;28;20274;-66
2024/01/31 09:13:25;;;;;;;8.70;5.73;;;11.00;35.70;;;;;;5051056;28;20204;-65
2024/01/31 09:15:53;;;;;;;8.53;6.20;;;11.20;36.00;;;;;;5053326;28;20200;-65
2024/01/31 09:18:20;;;;;;;6.30;5.13;;;11.40;35.10;;;;;;5052538;28;20257;-65
2024/01/31 09:20:46;;;;;;;9.47;6.33;;;11.50;35.20;;;;;;5054581;28;20227;-66
2024/01/31 09:23:13;;;;;;;9.53;6.23;;;11.50;35.20;;;;;;5051696;28;20240;-66
2024/01/31 09:25:39;;;;;;;7.00;6.30;;;11.40;36.30;;;;;;5057833;28;20593;-66
2024/01/31 09:28:06;;;;;;;7.00;5.70;;;11.60;35.80;;;;;;5036064;28;20311;-63
2024/01/31 09:30:33;;;;;;;8.67;6.00;;;11.70;35.10;;;;;;5059274;28;20747;-70
2024/01/31 09:32:59;;;;;;;8.77;5.80;;;11.90;35.00;;;;;;5054146;28;23326;-66
2024/01/31 09:35:26;;;;;;;9.40;6.63;;;12.20;34.70;;;;;;5058291;28;20255;-68
2024/01/31 09:37:53;;;;;;;7.53;6.03;;;12.30;35.10;;;;;;5064951;28;20290;-66
2024/01/31 09:40:22;;;;;;;10.23;6.00;;;12.40;35.20;;;;;;5059835;28;20233;-66
2024/01/31 09:42:49;;;;;;;8.37;6.07;;;12.30;35.20;;;;;;5057504;28;20280;-68
2024/01/31 09:45:16;;;;;;;7.80;5.23;;;12.50;34.50;;;;;;5069483;28;20205;-68
2024/01/31 09:47:42;;;;;;;7.13;5.63;;;12.50;34.70;;;;;;5069848;28;20339;-67
2024/01/31 09:50:09;;;;;;;9.03;6.23;;;12.50;34.90;;;;;;5064936;28;20696;-67
2024/01/31 09:52:35;;;;;;;7.57;5.60;;;12.40;34.00;;;;;;5073057;28;20712;-67
2024/01/31 09:55:04;;;;;;;9.93;5.47;;;12.50;33.80;;;;;;5073482;28;20653;-68
2024/01/31 09:57:31;;;;;;;8.20;5.90;;;12.40;34.10;;;;;;5073025;28;20206;-68
2024/01/31 09:59:57;;;;;;;9.97;5.80;;;12.30;34.40;;;;;;5049672;28;20205;-67
2024/01/31 10:02:24;;;;;;;8.83;5.90;;;12.10;34.80;;;;;;5056682;28;20225;-67
2024/01/31 10:04:50;;;;;;;11.00;6.00;;;12.20;35.00;;;;;;5072222;28;20216;-68
2024/01/31 10:07:17;;;;;;;7.50;6.33;;;12.50;34.80;;;;;;5072440;28;20228;-68
2024/01/31 10:09:43;;;;;;;9.30;5.90;;;12.90;33.90;;;;;;5072728;28;20269;-68
2024/01/31 10:12:11;;;;;;;9.33;5.87;;;13.40;34.30;;;;;;5072463;28;20236;-68
2024/01/31 10:14:38;;;;;;;6.80;5.93;;;13.60;33.50;;;;;;5072967;28;20216;-67
2024/01/31 10:17:04;;;;;;;7.03;5.70;;;13.50;33.20;;;;;;5069944;28;20241;-68
2024/01/31 10:19:31;;;;;;;5.80;5.20;;;13.60;32.30;;;;;;5054730;28;20511;-67
2024/01/31 10:21:57;;;;;;;8.20;6.07;;;13.70;32.80;;;;;;5056113;28;20291;-67
2024/01/31 10:24:24;;;;;;;7.53;5.80;;;13.60;32.10;;;;;;5051829;28;20621;-68
2024/01/31 10:26:51;;;;;;;5.77;5.17;;;13.10;33.20;;;;;;5069763;28;20228;-68
2024/01/31 10:29:17;;;;;;;8.83;5.73;;;13.00;33.10;;;;;;5072090;28;20359;-67
2024/01/31 10:31:46;;;;;;;6.77;5.40;;;13.00;32.70;;;;;;5071841;28;20240;-67
2024/01/31 10:34:12;;;;;;;7.10;5.07;;;13.20;32.40;;;;;;5071885;28;20210;-68
2024/01/31 10:36:40;;;;;;;6.87;5.13;;;13.20;32.20;;;;;;5069768;28;20619;-67
2024/01/31 10:39:06;;;;;;;5.83;5.20;;;13.00;32.70;;;;;;5070997;28;20219;-68
2024/01/31 10:41:33;;;;;;;7.60;5.27;;;12.80;33.00;;;;;;5056731;28;20243;-67
2024/01/31 10:44:00;;;;;;;7.97;5.30;;;12.70;32.90;;;;;;5061360;28;20758;-68
2024/01/31 10:46:28;;;;;;;8.23;5.90;;;12.60;33.60;;;;;;5071664;28;20266;-67
2024/01/31 10:48:54;;;;;;;9.43;6.13;;;12.50;33.90;;;;;;5071646;28;20220;-67
2024/01/31 10:51:21;;;;;;;7.07;5.20;;;12.60;34.20;;;;;;5071368;28;20279;-68
2024/01/31 10:53:48;;;;;;;7.00;5.20;;;12.60;33.70;;;;;;5068731;28;20297;-67
2024/01/31 10:56:14;;;;;;;7.40;5.60;;;12.70;33.60;;;;;;5071518;28;20211;-67
2024/01/31 10:58:41;;;;;;;13.77;6.10;;;12.90;33.40;;;;;;5065242;28;20251;-72
2024/01/31 11:01:12;;;;;;;31.37;6.33;;;12.90;34.60;;;;;;5060232;28;20275;-72
2024/01/31 11:03:38;;;;;;;16.87;5.43;;;13.00;34.50;;;;;;5052570;28;20587;-67
2024/01/31 11:06:05;;;;;;;32.43;6.60;;;12.90;34.20;;;;;;5056197;28;20219;-69
2024/01/31 11:08:32;;;;;;;12.20;5.10;;;12.90;35.30;;;;;;5051711;28;20233;-68
2024/01/31 11:10:58;;;;;;;6.30;4.80;;;12.80;34.60;;;;;;5054610;28;20214;-69
2024/01/31 11:13:25;;;;;;;7.53;4.73;;;12.40;33.80;;;;;;5045748;28;20231;-69
2024/01/31 11:15:51;;;;;;;6.37;5.20;;;12.20;34.40;;;;;;5052746;28;20209;-69
2024/01/31 11:18:18;;;;;;;9.93;5.57;;;12.20;34.40;;;;;;5051827;28;20209;-69
2024/01/31 11:20:44;;;;;;;5.10;4.40;;;12.10;34.50;;;;;;5057223;28;20236;-69
2024/01/31 11:23:11;;;;;;;7.60;4.77;;;12.20;34.50;;;;;;5049189;28;20220;-68
2024/01/31 11:25:37;;;;;;;7.00;5.13;;;12.30;34.20;;;;;;5049802;28;20343;-68
2024/01/31 11:28:04;;;;;;;6.93;5.40;;;12.40;34.10;;;;;;5051485;28;20295;-69
2024/01/31 11:30:31;;;;;;;5.97;4.77;;;12.80;33.90;;;;;;5055982;28;20210;-69
2024/01/31 11:32:58;;;;;;;6.93;5.13;;;13.70;32.30;;;;;;5051978;28;20305;-69
2024/01/31 11:35:25;;;;;;;7.33;4.93;;;13.90;31.80;;;;;;5053400;28;20228;-69
2024/01/31 11:37:52;;;;;;;7.17;5.00;;;14.40;30.80;;;;;;5054518;28;20880;-69
2024/01/31 11:40:19;;;;;;;7.70;5.37;;;15.00;30.10;;;;;;5051127;28;20213;-69
2024/01/31 11:42:45;;;;;;;8.67;5.27;;;15.60;29.60;;;;;;5051555;28;20251;-69
2024/01/31 11:45:12;;;;;;;6.07;4.40;;;15.90;28.70;;;;;;5048124;28;20487;-68
2024/01/31 11:47:39;;;;;;;5.77;5.17;;;16.50;28.50;;;;;;5049223;28;20317;-68
2024/01/31 11:50:05;;;;;;;8.83;4.67;;;17.00;27.80;;;;;;5055328;28;20208;-67
2024/01/31 11:52:32;;;;;;;5.33;4.50;;;15.90;28.80;;;;;;5060607;28;20256;-68
2024/01/31 11:54:58;;;;;;;6.83;4.67;;;15.00;30.10;;;;;;5065181;28;20212;-68
2024/01/31 11:57:26;;;;;;;6.90;4.93;;;15.00;30.80;;;;;;5065044;28;20285;-68
2024/01/31 11:59:53;;;;;;;7.27;5.27;;;15.10;31.00;;;;;;5061603;28;20393;-69
2024/01/31 12:02:19;;;;;;;7.07;4.87;;;16.80;29.80;;;;;;5074851;28;20247;-69
2024/01/31 12:04:46;;;;;;;8.23;5.20;;;16.80;28.80;;;;;;5074157;28;20198;-68
2024/01/31 12:07:12;;;;;;;6.43;4.50;;;16.70;29.10;;;;;;5074533;28;20285;-68
2024/01/31 12:09:39;;;;;;;5.63;5.03;;;16.00;29.80;;;;;;5076360;28;20661;-69
2024/01/31 12:12:05;;;;;;;5.33;4.30;;;16.10;30.10;;;;;;5081690;28;20227;-68
2024/01/31 12:14:32;;;;;;;8.40;4.37;;;16.40;30.20;;;;;;5075968;28;20212;-69
2024/01/31 12:16:59;;;;;;;6.30;5.00;;;16.70;29.80;;;;;;5058062;28;20204;-69
2024/01/31 12:19:29;;;;;;;7.50;4.27;;;16.30;29.80;;;;;;5059950;28;20251;-69
2024/01/31 12:21:55;;;;;;;7.37;5.53;;;15.90;30.30;;;;;;5054017;28;20235;-70
2024/01/31 12:24:22;;;;;;;6.87;4.87;;;15.90;30.10;;;;;;5059572;28;20262;-67
2024/01/31 12:26:48;;;;;;;7.17;5.20;;;15.40;30.50;;;;;;5055418;28;20221;-68
2024/01/31 12:29:15;;;;;;;14.93;5.67;;;15.70;30.40;;;;;;5056842;28;20229;-69
2024/01/31 12:31:41;;;;;;;8.93;4.80;;;15.70;29.90;;;;;;5061429;28;20278;-68
2024/01/31 12:34:09;;;;;;;6.30;4.37;;;15.80;30.30;;;;;;5063133;28;20205;-68
2024/01/31 12:36:35;;;;;;;6.47;4.57;;;15.70;30.20;;;;;;5056555;28;20207;-68
2024/01/31 12:39:02;;;;;;;9.00;4.90;;;15.50;30.60;;;;;;5060803;28;20263;-68
2024/01/31 12:41:29;;;;;;;11.57;5.43;;;15.70;30.10;;;;;;5062128;28;20244;-68
2024/01/31 12:43:55;;;;;;;7.63;5.00;;;15.40;31.10;;;;;;5059914;28;21307;-68
2024/01/31 12:46:24;;;;;;;7.10;4.67;;;15.40;31.10;;;;;;5059691;28;20262;-68
2024/01/31 12:48:51;;;;;;;6.87;4.90;;;15.20;31.60;;;;;;5054942;28;20707;-68